sensor_id;sensor_type;location;lat;lon;timestamp;P1;P2;P0
69123;PMS5003;56232;53.384;-2.732;2022-07-05T00:01:17;3;3;
69123;PMS5003;56232;53.384;-2.732;2022-07-05T00:03:43;2;2;
69123;PMS5003;56232;53.384;-2.732;2022-07-05T00:06:09;5;4;
69123;PMS5003;56232;53.384;-2.732;2022-07-05T00:08:34;3;2;
69123;PMS5003;56232;53.384;-2.732;2022-07-05T00:11:00;2;2;
69123;PMS5003;56232;53.384;-2.732;2022-07-05T00:13:26;4;4;
69123;PMS5003;56232;53.384;-2.732;2022-07-05T00:15:51;3;2;
69123;PMS5003;56232;53.384;-2.732;2022-07-05T00:18:17;5;4;
69123;PMS5003;56232;53.384;-2.732;2022-07-05T00:20:43;2;2;
69123;PMS5003;56232;53.384;-2.732;2022-07-05T00:23:08;2;2;
69123;PMS5003;56232;53.384;-2.732;2022-07-05T00:25:34;3;3;
69123;PMS5003;56232;53.384;-2.732;2022-07-05T00:28:00;2;2;
69123;PMS5003;56232;53.384;-2.732;2022-07-05T00:30:25;2;1;
69123;PMS5003;56232;53.384;-2.732;2022-07-05T00:32:51;5;4;
69123;PMS5003;56232;53.384;-2.732;2022-07-05T00:35:16;3;2;
69123;PMS5003;56232;53.384;-2.732;2022-07-05T00:37:42;2;2;
69123;PMS5003;56232;53.384;-2.732;2022-07-05T00:40:08;1;1;
69123;PMS5003;56232;53.384;-2.732;2022-07-05T00:42:34;3;2;
69123;PMS5003;56232;53.384;-2.732;2022-07-05T00:44:59;2;2;
69123;PMS5003;56232;53.384;-2.732;2022-07-05T00:47:25;1;1;
69123;PMS5003;56232;53.384;-2.732;2022-07-05T00:49:50;4;3;
69123;PMS5003;56232;53.384;-2.732;2022-07-05T00:52:16;3;2;
69123;PMS5003;56232;53.384;-2.732;2022-07-05T00:54:42;2;2;
69123;PMS5003;56232;53.384;-2.732;2022-07-05T00:57:07;2;2;
69123;PMS5003;56232;53.384;-2.732;2022-07-05T00:59:33;2;1;
69123;PMS5003;56232;53.384;-2.732;2022-07-05T01:01:58;4;3;
69123;PMS5003;56232;53.384;-2.732;2022-07-05T01:04:24;0;0;
69123;PMS5003;56232;53.384;-2.732;2022-07-05T01:06:50;2;2;
69123;PMS5003;56232;53.384;-2.732;2022-07-05T01:09:16;2;2;
69123;PMS5003;56232;53.384;-2.732;2022-07-05T01:11:41;3;3;
69123;PMS5003;56232;53.384;-2.732;2022-07-05T01:14:06;1;1;
69123;PMS5003;56232;53.384;-2.732;2022-07-05T01:16:32;3;2;
69123;PMS5003;56232;53.384;-2.732;2022-07-05T01:18:58;2;2;
69123;PMS5003;56232;53.384;-2.732;2022-07-05T01:21:23;1;1;
69123;PMS5003;56232;53.384;-2.732;2022-07-05T01:23:49;1;1;
69123;PMS5003;56232;53.384;-2.732;2022-07-05T01:26:15;1;1;
69123;PMS5003;56232;53.384;-2.732;2022-07-05T01:28:40;3;1;
69123;PMS5003;56232;53.384;-2.732;2022-07-05T01:31:06;2;1;
69123;PMS5003;56232;53.384;-2.732;2022-07-05T01:33:32;2;2;
69123;PMS5003;56232;53.384;-2.732;2022-07-05T01:35:57;1;1;
69123;PMS5003;56232;53.384;-2.732;2022-07-05T01:38:24;2;1;
69123;PMS5003;56232;53.384;-2.732;2022-07-05T01:40:48;2;2;
69123;PMS5003;56232;53.384;-2.732;2022-07-05T01:43:14;3;2;
69123;PMS5003;56232;53.384;-2.732;2022-07-05T01:45:40;0;0;
69123;PMS5003;56232;53.384;-2.732;2022-07-05T01:48:06;2;2;
69123;PMS5003;56232;53.384;-2.732;2022-07-05T01:50:33;4;3;
69123;PMS5003;56232;53.384;-2.732;2022-07-05T01:52:56;4;2;
69123;PMS5003;56232;53.384;-2.732;2022-07-05T01:55:22;1;1;
69123;PMS5003;56232;53.384;-2.732;2022-07-05T01:57:48;1;1;
69123;PMS5003;56232;53.384;-2.732;2022-07-05T02:00:14;1;0;
69123;PMS5003;56232;53.384;-2.732;2022-07-05T02:02:39;1;1;
69123;PMS5003;56232;53.384;-2.732;2022-07-05T02:05:05;2;2;
69123;PMS5003;56232;53.384;-2.732;2022-07-05T02:07:30;1;1;
69123;PMS5003;56232;53.384;-2.732;2022-07-05T02:09:56;2;2;
69123;PMS5003;56232;53.384;-2.732;2022-07-05T02:12:22;2;1;
69123;PMS5003;56232;53.384;-2.732;2022-07-05T02:14:47;2;2;
69123;PMS5003;56232;53.384;-2.732;2022-07-05T02:17:13;1;0;
69123;PMS5003;56232;53.384;-2.732;2022-07-05T02:19:39;1;1;
69123;PMS5003;56232;53.384;-2.732;2022-07-05T02:22:04;1;0;
69123;PMS5003;56232;53.384;-2.732;2022-07-05T02:24:30;1;1;
69123;PMS5003;56232;53.384;-2.732;2022-07-05T02:26:56;1;1;
69123;PMS5003;56232;53.384;-2.732;2022-07-05T02:29:22;2;2;
69123;PMS5003;56232;53.384;-2.732;2022-07-05T02:31:47;1;1;
69123;PMS5003;56232;53.384;-2.732;2022-07-05T02:34:13;2;2;
69123;PMS5003;56232;53.384;-2.732;2022-07-05T02:36:38;3;3;
69123;PMS5003;56232;53.384;-2.732;2022-07-05T02:39:04;1;1;
69123;PMS5003;56232;53.384;-2.732;2022-07-05T02:41:30;2;2;
69123;PMS5003;56232;53.384;-2.732;2022-07-05T02:43:55;0;0;
69123;PMS5003;56232;53.384;-2.732;2022-07-05T02:46:21;2;2;
69123;PMS5003;56232;53.384;-2.732;2022-07-05T02:48:47;3;3;
69123;PMS5003;56232;53.384;-2.732;2022-07-05T02:51:12;2;2;
69123;PMS5003;56232;53.384;-2.732;2022-07-05T02:53:38;3;1;
69123;PMS5003;56232;53.384;-2.732;2022-07-05T02:56:04;4;3;
69123;PMS5003;56232;53.384;-2.732;2022-07-05T02:58:29;3;3;
69123;PMS5003;56232;53.384;-2.732;2022-07-05T03:00:55;1;1;
69123;PMS5003;56232;53.384;-2.732;2022-07-05T03:03:21;1;1;
69123;PMS5003;56232;53.384;-2.732;2022-07-05T03:05:46;1;1;
69123;PMS5003;56232;53.384;-2.732;2022-07-05T03:08:12;2;1;
69123;PMS5003;56232;53.384;-2.732;2022-07-05T03:10:37;2;2;
69123;PMS5003;56232;53.384;-2.732;2022-07-05T03:13:03;2;2;
69123;PMS5003;56232;53.384;-2.732;2022-07-05T03:15:29;2;1;
69123;PMS5003;56232;53.384;-2.732;2022-07-05T03:17:54;3;3;
69123;PMS5003;56232;53.384;-2.732;2022-07-05T03:20:20;2;2;
69123;PMS5003;56232;53.384;-2.732;2022-07-05T03:22:46;3;1;
69123;PMS5003;56232;53.384;-2.732;2022-07-05T03:25:11;1;1;
69123;PMS5003;56232;53.384;-2.732;2022-07-05T03:27:37;3;2;
69123;PMS5003;56232;53.384;-2.732;2022-07-05T03:30:03;3;3;
69123;PMS5003;56232;53.384;-2.732;2022-07-05T03:32:28;4;3;
69123;PMS5003;56232;53.384;-2.732;2022-07-05T03:34:54;4;4;
69123;PMS5003;56232;53.384;-2.732;2022-07-05T03:37:20;2;2;
69123;PMS5003;56232;53.384;-2.732;2022-07-05T03:39:45;2;2;
69123;PMS5003;56232;53.384;-2.732;2022-07-05T03:42:11;2;2;
69123;PMS5003;56232;53.384;-2.732;2022-07-05T03:44:37;3;2;
69123;PMS5003;56232;53.384;-2.732;2022-07-05T03:47:02;4;3;
69123;PMS5003;56232;53.384;-2.732;2022-07-05T03:49:28;2;2;
69123;PMS5003;56232;53.384;-2.732;2022-07-05T03:51:54;1;1;
69123;PMS5003;56232;53.384;-2.732;2022-07-05T03:54:19;1;1;
69123;PMS5003;56232;53.384;-2.732;2022-07-05T03:56:45;3;2;
69123;PMS5003;56232;53.384;-2.732;2022-07-05T03:59:11;1;1;
69123;PMS5003;56232;53.384;-2.732;2022-07-05T04:01:36;3;2;
69123;PMS5003;56232;53.384;-2.732;2022-07-05T04:04:02;1;1;
69123;PMS5003;56232;53.384;-2.732;2022-07-05T04:06:27;3;3;
69123;PMS5003;56232;53.384;-2.732;2022-07-05T04:08:53;4;2;
69123;PMS5003;56232;53.384;-2.732;2022-07-05T04:11:19;4;3;
69123;PMS5003;56232;53.384;-2.732;2022-07-05T04:13:44;5;3;
69123;PMS5003;56232;53.384;-2.732;2022-07-05T04:16:10;4;3;
69123;PMS5003;56232;53.384;-2.732;2022-07-05T04:18:36;4;3;
69123;PMS5003;56232;53.384;-2.732;2022-07-05T04:21:01;3;3;
69123;PMS5003;56232;53.384;-2.732;2022-07-05T04:23:27;3;2;
69123;PMS5003;56232;53.384;-2.732;2022-07-05T04:25:52;2;2;
69123;PMS5003;56232;53.384;-2.732;2022-07-05T04:28:18;1;1;
69123;PMS5003;56232;53.384;-2.732;2022-07-05T04:30:44;2;2;
69123;PMS5003;56232;53.384;-2.732;2022-07-05T04:33:09;2;1;
69123;PMS5003;56232;53.384;-2.732;2022-07-05T04:35:35;4;3;
69123;PMS5003;56232;53.384;-2.732;2022-07-05T04:38:00;3;2;
69123;PMS5003;56232;53.384;-2.732;2022-07-05T04:40:26;3;3;
69123;PMS5003;56232;53.384;-2.732;2022-07-05T04:42:52;1;1;
69123;PMS5003;56232;53.384;-2.732;2022-07-05T04:45:17;3;3;
69123;PMS5003;56232;53.384;-2.732;2022-07-05T04:47:43;2;1;
69123;PMS5003;56232;53.384;-2.732;2022-07-05T04:50:09;3;2;
69123;PMS5003;56232;53.384;-2.732;2022-07-05T04:52:34;3;3;
69123;PMS5003;56232;53.384;-2.732;2022-07-05T04:55:00;2;2;
69123;PMS5003;56232;53.384;-2.732;2022-07-05T04:57:26;3;3;
69123;PMS5003;56232;53.384;-2.732;2022-07-05T04:59:51;6;4;
69123;PMS5003;56232;53.384;-2.732;2022-07-05T05:02:17;7;4;
69123;PMS5003;56232;53.384;-2.732;2022-07-05T05:04:43;4;3;
69123;PMS5003;56232;53.384;-2.732;2022-07-05T05:07:08;2;2;
69123;PMS5003;56232;53.384;-2.732;2022-07-05T05:09:33;2;1;
69123;PMS5003;56232;53.384;-2.732;2022-07-05T05:11:59;3;1;
69123;PMS5003;56232;53.384;-2.732;2022-07-05T05:14:25;4;3;
69123;PMS5003;56232;53.384;-2.732;2022-07-05T05:16:50;5;4;
69123;PMS5003;56232;53.384;-2.732;2022-07-05T05:19:16;3;2;
69123;PMS5003;56232;53.384;-2.732;2022-07-05T05:21:41;2;2;
69123;PMS5003;56232;53.384;-2.732;2022-07-05T05:24:07;3;3;
69123;PMS5003;56232;53.384;-2.732;2022-07-05T05:26:33;3;2;
69123;PMS5003;56232;53.384;-2.732;2022-07-05T05:28:58;6;3;
69123;PMS5003;56232;53.384;-2.732;2022-07-05T05:31:24;1;1;
69123;PMS5003;56232;53.384;-2.732;2022-07-05T05:33:49;3;2;
69123;PMS5003;56232;53.384;-2.732;2022-07-05T05:36:15;4;3;
69123;PMS5003;56232;53.384;-2.732;2022-07-05T05:38:40;1;1;
69123;PMS5003;56232;53.384;-2.732;2022-07-05T05:41:06;2;2;
69123;PMS5003;56232;53.384;-2.732;2022-07-05T05:43:31;3;2;
69123;PMS5003;56232;53.384;-2.732;2022-07-05T05:45:57;2;1;
69123;PMS5003;56232;53.384;-2.732;2022-07-05T05:48:23;1;1;
69123;PMS5003;56232;53.384;-2.732;2022-07-05T05:50:48;3;2;
69123;PMS5003;56232;53.384;-2.732;2022-07-05T05:53:14;2;2;
69123;PMS5003;56232;53.384;-2.732;2022-07-05T05:55:39;2;2;
69123;PMS5003;56232;53.384;-2.732;2022-07-05T06:00:30;2;2;
69123;PMS5003;56232;53.384;-2.732;2022-07-05T06:02:56;2;2;
69123;PMS5003;56232;53.384;-2.732;2022-07-05T06:05:22;1;1;
69123;PMS5003;56232;53.384;-2.732;2022-07-05T06:07:48;3;1;
69123;PMS5003;56232;53.384;-2.732;2022-07-05T06:10:14;2;2;
69123;PMS5003;56232;53.384;-2.732;2022-07-05T06:12:38;3;2;
69123;PMS5003;56232;53.384;-2.732;2022-07-05T06:15:04;3;3;
69123;PMS5003;56232;53.384;-2.732;2022-07-05T06:19:55;1;1;
69123;PMS5003;56232;53.384;-2.732;2022-07-05T06:22:21;1;1;
69123;PMS5003;56232;53.384;-2.732;2022-07-05T06:24:46;1;1;
69123;PMS5003;56232;53.384;-2.732;2022-07-05T06:27:12;1;1;
69123;PMS5003;56232;53.384;-2.732;2022-07-05T06:29:37;2;1;
69123;PMS5003;56232;53.384;-2.732;2022-07-05T06:32:03;1;0;
69123;PMS5003;56232;53.384;-2.732;2022-07-05T06:34:28;1;1;
69123;PMS5003;56232;53.384;-2.732;2022-07-05T06:36:54;0;0;
69123;PMS5003;56232;53.384;-2.732;2022-07-05T06:39:19;2;2;
69123;PMS5003;56232;53.384;-2.732;2022-07-05T06:41:45;2;1;
69123;PMS5003;56232;53.384;-2.732;2022-07-05T06:44:10;4;3;
69123;PMS5003;56232;53.384;-2.732;2022-07-05T06:46:36;2;2;
69123;PMS5003;56232;53.384;-2.732;2022-07-05T06:49:02;1;0;
69123;PMS5003;56232;53.384;-2.732;2022-07-05T06:51:27;2;2;
69123;PMS5003;56232;53.384;-2.732;2022-07-05T06:53:53;3;3;
69123;PMS5003;56232;53.384;-2.732;2022-07-05T06:56:18;5;4;
69123;PMS5003;56232;53.384;-2.732;2022-07-05T06:58:44;2;2;
69123;PMS5003;56232;53.384;-2.732;2022-07-05T07:01:09;3;2;
69123;PMS5003;56232;53.384;-2.732;2022-07-05T07:03:35;3;3;
69123;PMS5003;56232;53.384;-2.732;2022-07-05T07:06:01;4;4;
69123;PMS5003;56232;53.384;-2.732;2022-07-05T07:08:26;4;4;
69123;PMS5003;56232;53.384;-2.732;2022-07-05T07:10:52;4;3;
69123;PMS5003;56232;53.384;-2.732;2022-07-05T07:13:17;4;3;
69123;PMS5003;56232;53.384;-2.732;2022-07-05T07:15:43;4;3;
69123;PMS5003;56232;53.384;-2.732;2022-07-05T07:18:09;4;4;
69123;PMS5003;56232;53.384;-2.732;2022-07-05T07:20:34;6;4;
69123;PMS5003;56232;53.384;-2.732;2022-07-05T07:22:59;4;3;
69123;PMS5003;56232;53.384;-2.732;2022-07-05T07:25:25;6;5;
69123;PMS5003;56232;53.384;-2.732;2022-07-05T07:27:51;4;4;
69123;PMS5003;56232;53.384;-2.732;2022-07-05T07:30:17;5;4;
69123;PMS5003;56232;53.384;-2.732;2022-07-05T07:32:42;4;4;
69123;PMS5003;56232;53.384;-2.732;2022-07-05T07:35:08;6;5;
69123;PMS5003;56232;53.384;-2.732;2022-07-05T07:37:33;4;4;
69123;PMS5003;56232;53.384;-2.732;2022-07-05T07:39:58;6;5;
69123;PMS5003;56232;53.384;-2.732;2022-07-05T07:42:24;4;4;
69123;PMS5003;56232;53.384;-2.732;2022-07-05T07:44:50;5;5;
69123;PMS5003;56232;53.384;-2.732;2022-07-05T07:47:16;4;4;
69123;PMS5003;56232;53.384;-2.732;2022-07-05T07:49:41;3;3;
69123;PMS5003;56232;53.384;-2.732;2022-07-05T07:52:07;3;3;
69123;PMS5003;56232;53.384;-2.732;2022-07-05T07:54:32;5;5;
69123;PMS5003;56232;53.384;-2.732;2022-07-05T07:56:58;4;3;
69123;PMS5003;56232;53.384;-2.732;2022-07-05T07:59:29;2;2;
69123;PMS5003;56232;53.384;-2.732;2022-07-05T08:01:49;2;2;
69123;PMS5003;56232;53.384;-2.732;2022-07-05T08:04:15;3;2;
69123;PMS5003;56232;53.384;-2.732;2022-07-05T08:06:41;2;2;
69123;PMS5003;56232;53.384;-2.732;2022-07-05T08:09:06;3;3;
69123;PMS5003;56232;53.384;-2.732;2022-07-05T08:11:32;3;3;
69123;PMS5003;56232;53.384;-2.732;2022-07-05T08:13:57;2;2;
69123;PMS5003;56232;53.384;-2.732;2022-07-05T08:16:23;2;2;
69123;PMS5003;56232;53.384;-2.732;2022-07-05T08:18:48;4;3;
69123;PMS5003;56232;53.384;-2.732;2022-07-05T08:21:14;5;3;
69123;PMS5003;56232;53.384;-2.732;2022-07-05T08:23:40;4;4;
69123;PMS5003;56232;53.384;-2.732;2022-07-05T08:26:05;5;4;
69123;PMS5003;56232;53.384;-2.732;2022-07-05T08:28:31;4;3;
69123;PMS5003;56232;53.384;-2.732;2022-07-05T08:30:56;3;3;
69123;PMS5003;56232;53.384;-2.732;2022-07-05T08:33:22;2;2;
69123;PMS5003;56232;53.384;-2.732;2022-07-05T08:35:48;3;3;
69123;PMS5003;56232;53.384;-2.732;2022-07-05T08:38:13;3;3;
69123;PMS5003;56232;53.384;-2.732;2022-07-05T08:40:39;6;4;
69123;PMS5003;56232;53.384;-2.732;2022-07-05T08:43:04;5;4;
69123;PMS5003;56232;53.384;-2.732;2022-07-05T08:45:30;5;4;
69123;PMS5003;56232;53.384;-2.732;2022-07-05T08:47:56;5;5;
69123;PMS5003;56232;53.384;-2.732;2022-07-05T08:50:22;0;0;
69123;PMS5003;56232;53.384;-2.732;2022-07-05T08:52:52;1;1;
69123;PMS5003;56232;53.384;-2.732;2022-07-05T08:55:13;1;1;
69123;PMS5003;56232;53.384;-2.732;2022-07-05T08:57:38;1;1;
69123;PMS5003;56232;53.384;-2.732;2022-07-05T09:00:04;1;1;
69123;PMS5003;56232;53.384;-2.732;2022-07-05T09:02:29;0;0;
69123;PMS5003;56232;53.384;-2.732;2022-07-05T09:04:55;1;1;
69123;PMS5003;56232;53.384;-2.732;2022-07-05T09:07:21;1;0;
69123;PMS5003;56232;53.384;-2.732;2022-07-05T09:09:47;0;0;
69123;PMS5003;56232;53.384;-2.732;2022-07-05T09:12:12;0;0;
69123;PMS5003;56232;53.384;-2.732;2022-07-05T09:14:37;0;0;
69123;PMS5003;56232;53.384;-2.732;2022-07-05T09:17:03;2;1;
69123;PMS5003;56232;53.384;-2.732;2022-07-05T09:19:29;1;1;
69123;PMS5003;56232;53.384;-2.732;2022-07-05T09:24:20;1;1;
69123;PMS5003;56232;53.384;-2.732;2022-07-05T09:26:46;0;0;
69123;PMS5003;56232;53.384;-2.732;2022-07-05T09:29:11;0;0;
69123;PMS5003;56232;53.384;-2.732;2022-07-05T09:31:37;1;1;
69123;PMS5003;56232;53.384;-2.732;2022-07-05T09:34:04;0;0;
69123;PMS5003;56232;53.384;-2.732;2022-07-05T09:36:28;0;0;
69123;PMS5003;56232;53.384;-2.732;2022-07-05T09:38:53;0;0;
69123;PMS5003;56232;53.384;-2.732;2022-07-05T09:41:19;0;0;
69123;PMS5003;56232;53.384;-2.732;2022-07-05T09:43:44;0;0;
69123;PMS5003;56232;53.384;-2.732;2022-07-05T09:46:29;1;1;
69123;PMS5003;56232;53.384;-2.732;2022-07-05T09:48:36;0;0;
69123;PMS5003;56232;53.384;-2.732;2022-07-05T09:51:05;0;0;
69123;PMS5003;56232;53.384;-2.732;2022-07-05T09:53:27;0;0;
69123;PMS5003;56232;53.384;-2.732;2022-07-05T10:00:44;0;0;
69123;PMS5003;56232;53.384;-2.732;2022-07-05T10:03:09;0;0;
69123;PMS5003;56232;53.384;-2.732;2022-07-05T10:05:35;0;0;
69123;PMS5003;56232;53.384;-2.732;2022-07-05T10:08:01;0;0;
69123;PMS5003;56232;53.384;-2.732;2022-07-05T10:10:26;0;0;
69123;PMS5003;56232;53.384;-2.732;2022-07-05T10:12:52;0;0;
69123;PMS5003;56232;53.384;-2.732;2022-07-05T10:15:17;0;0;
69123;PMS5003;56232;53.384;-2.732;2022-07-05T10:17:44;1;1;
69123;PMS5003;56232;53.384;-2.732;2022-07-05T10:20:11;1;1;
69123;PMS5003;56232;53.384;-2.732;2022-07-05T10:22:33;1;1;
69123;PMS5003;56232;53.384;-2.732;2022-07-05T10:24:59;0;0;
69123;PMS5003;56232;53.384;-2.732;2022-07-05T10:27:24;0;0;
69123;PMS5003;56232;53.384;-2.732;2022-07-05T10:29:50;1;1;
69123;PMS5003;56232;53.384;-2.732;2022-07-05T10:32:15;1;1;
69123;PMS5003;56232;53.384;-2.732;2022-07-05T10:34:41;0;0;
69123;PMS5003;56232;53.384;-2.732;2022-07-05T10:37:06;0;0;
69123;PMS5003;56232;53.384;-2.732;2022-07-05T10:39:32;0;0;
69123;PMS5003;56232;53.384;-2.732;2022-07-05T10:41:57;1;0;
69123;PMS5003;56232;53.384;-2.732;2022-07-05T10:44:26;0;0;
69123;PMS5003;56232;53.384;-2.732;2022-07-05T10:46:48;0;0;
69123;PMS5003;56232;53.384;-2.732;2022-07-05T10:49:14;0;0;
69123;PMS5003;56232;53.384;-2.732;2022-07-05T10:51:39;1;0;
69123;PMS5003;56232;53.384;-2.732;2022-07-05T10:54:05;0;0;
69123;PMS5003;56232;53.384;-2.732;2022-07-05T10:56:30;0;0;
69123;PMS5003;56232;53.384;-2.732;2022-07-05T11:03:48;0;0;
69123;PMS5003;56232;53.384;-2.732;2022-07-05T11:11:08;0;0;
69123;PMS5003;56232;53.384;-2.732;2022-07-05T11:18:22;0;0;
69123;PMS5003;56232;53.384;-2.732;2022-07-05T11:20:45;0;0;
69123;PMS5003;56232;53.384;-2.732;2022-07-05T11:23:11;0;0;
69123;PMS5003;56232;53.384;-2.732;2022-07-05T11:25:40;0;0;
69123;PMS5003;56232;53.384;-2.732;2022-07-05T11:30:28;1;0;
69123;PMS5003;56232;53.384;-2.732;2022-07-05T11:32:53;0;0;
69123;PMS5003;56232;53.384;-2.732;2022-07-05T11:35:19;0;0;
69123;PMS5003;56232;53.384;-2.732;2022-07-05T11:40:28;0;0;
69123;PMS5003;56232;53.384;-2.732;2022-07-05T11:42:35;0;0;
69123;PMS5003;56232;53.384;-2.732;2022-07-05T11:45:01;0;0;
69123;PMS5003;56232;53.384;-2.732;2022-07-05T11:47:27;1;0;
69123;PMS5003;56232;53.384;-2.732;2022-07-05T11:49:53;0;0;
69123;PMS5003;56232;53.384;-2.732;2022-07-05T11:52:17;1;1;
69123;PMS5003;56232;53.384;-2.732;2022-07-05T11:54:43;1;0;
69123;PMS5003;56232;53.384;-2.732;2022-07-05T11:57:08;0;0;
69123;PMS5003;56232;53.384;-2.732;2022-07-05T11:59:34;0;0;
69123;PMS5003;56232;53.384;-2.732;2022-07-05T12:01:59;0;0;
69123;PMS5003;56232;53.384;-2.732;2022-07-05T12:04:26;0;0;
69123;PMS5003;56232;53.384;-2.732;2022-07-05T12:06:50;0;0;
69123;PMS5003;56232;53.384;-2.732;2022-07-05T12:09:21;0;0;
69123;PMS5003;56232;53.384;-2.732;2022-07-05T12:11:41;0;0;
69123;PMS5003;56232;53.384;-2.732;2022-07-05T12:14:07;1;0;
69123;PMS5003;56232;53.384;-2.732;2022-07-05T12:16:33;1;1;
69123;PMS5003;56232;53.384;-2.732;2022-07-05T12:18:58;0;0;
69123;PMS5003;56232;53.384;-2.732;2022-07-05T12:21:24;0;0;
69123;PMS5003;56232;53.384;-2.732;2022-07-05T12:23:49;0;0;
69123;PMS5003;56232;53.384;-2.732;2022-07-05T12:26:15;0;0;
69123;PMS5003;56232;53.384;-2.732;2022-07-05T12:28:40;0;0;
69123;PMS5003;56232;53.384;-2.732;2022-07-05T12:33:31;0;0;
69123;PMS5003;56232;53.384;-2.732;2022-07-05T12:35:57;0;0;
69123;PMS5003;56232;53.384;-2.732;2022-07-05T12:38:23;1;1;
69123;PMS5003;56232;53.384;-2.732;2022-07-05T12:40:48;0;0;
69123;PMS5003;56232;53.384;-2.732;2022-07-05T12:43:14;0;0;
69123;PMS5003;56232;53.384;-2.732;2022-07-05T12:45:39;0;0;
69123;PMS5003;56232;53.384;-2.732;2022-07-05T12:48:05;0;0;
69123;PMS5003;56232;53.384;-2.732;2022-07-05T12:50:30;0;0;
69123;PMS5003;56232;53.384;-2.732;2022-07-05T12:52:58;0;0;
69123;PMS5003;56232;53.384;-2.732;2022-07-05T12:55:21;0;0;
69123;PMS5003;56232;53.384;-2.732;2022-07-05T12:57:48;0;0;
69123;PMS5003;56232;53.384;-2.732;2022-07-05T13:00:13;0;0;
69123;PMS5003;56232;53.384;-2.732;2022-07-05T13:02:38;1;0;
69123;PMS5003;56232;53.384;-2.732;2022-07-05T13:05:04;0;0;
69123;PMS5003;56232;53.384;-2.732;2022-07-05T13:07:29;1;1;
69123;PMS5003;56232;53.384;-2.732;2022-07-05T13:09:54;0;0;
69123;PMS5003;56232;53.384;-2.732;2022-07-05T13:12:20;0;0;
69123;PMS5003;56232;53.384;-2.732;2022-07-05T13:14:45;1;1;
69123;PMS5003;56232;53.384;-2.732;2022-07-05T13:17:11;0;0;
69123;PMS5003;56232;53.384;-2.732;2022-07-05T13:19:36;0;0;
69123;PMS5003;56232;53.384;-2.732;2022-07-05T13:22:02;0;0;
69123;PMS5003;56232;53.384;-2.732;2022-07-05T13:24:27;1;1;
69123;PMS5003;56232;53.384;-2.732;2022-07-05T13:26:53;0;0;
69123;PMS5003;56232;53.384;-2.732;2022-07-05T13:29:19;0;0;
69123;PMS5003;56232;53.384;-2.732;2022-07-05T13:31:44;1;0;
69123;PMS5003;56232;53.384;-2.732;2022-07-05T13:34:09;0;0;
69123;PMS5003;56232;53.384;-2.732;2022-07-05T13:36:35;0;0;
69123;PMS5003;56232;53.384;-2.732;2022-07-05T13:39:01;0;0;
69123;PMS5003;56232;53.384;-2.732;2022-07-05T13:41:26;2;2;
69123;PMS5003;56232;53.384;-2.732;2022-07-05T13:43:52;1;1;
69123;PMS5003;56232;53.384;-2.732;2022-07-05T13:46:17;1;0;
69123;PMS5003;56232;53.384;-2.732;2022-07-05T13:48:43;1;1;
69123;PMS5003;56232;53.384;-2.732;2022-07-05T13:51:08;0;0;
69123;PMS5003;56232;53.384;-2.732;2022-07-05T13:53:34;0;0;
69123;PMS5003;56232;53.384;-2.732;2022-07-05T13:56:00;0;0;
69123;PMS5003;56232;53.384;-2.732;2022-07-05T13:58:25;1;0;
69123;PMS5003;56232;53.384;-2.732;2022-07-05T14:00:51;1;1;
69123;PMS5003;56232;53.384;-2.732;2022-07-05T14:03:16;1;1;
69123;PMS5003;56232;53.384;-2.732;2022-07-05T14:05:42;1;1;
69123;PMS5003;56232;53.384;-2.732;2022-07-05T14:08:07;1;1;
69123;PMS5003;56232;53.384;-2.732;2022-07-05T14:10:33;2;1;
69123;PMS5003;56232;53.384;-2.732;2022-07-05T14:12:59;1;1;
69123;PMS5003;56232;53.384;-2.732;2022-07-05T14:15:24;1;0;
69123;PMS5003;56232;53.384;-2.732;2022-07-05T14:17:50;0;0;
69123;PMS5003;56232;53.384;-2.732;2022-07-05T14:20:15;0;0;
69123;PMS5003;56232;53.384;-2.732;2022-07-05T14:22:41;1;1;
69123;PMS5003;56232;53.384;-2.732;2022-07-05T14:25:07;1;1;
69123;PMS5003;56232;53.384;-2.732;2022-07-05T14:27:32;1;1;
69123;PMS5003;56232;53.384;-2.732;2022-07-05T14:29:58;1;1;
69123;PMS5003;56232;53.384;-2.732;2022-07-05T14:32:28;0;0;
69123;PMS5003;56232;53.384;-2.732;2022-07-05T14:34:49;1;0;
69123;PMS5003;56232;53.384;-2.732;2022-07-05T14:37:14;1;1;
69123;PMS5003;56232;53.384;-2.732;2022-07-05T14:39:40;0;0;
69123;PMS5003;56232;53.384;-2.732;2022-07-05T14:42:05;1;1;
69123;PMS5003;56232;53.384;-2.732;2022-07-05T14:44:31;0;0;
69123;PMS5003;56232;53.384;-2.732;2022-07-05T14:46:56;1;1;
69123;PMS5003;56232;53.384;-2.732;2022-07-05T14:49:22;0;0;
69123;PMS5003;56232;53.384;-2.732;2022-07-05T14:51:47;1;1;
69123;PMS5003;56232;53.384;-2.732;2022-07-05T14:54:13;1;1;
69123;PMS5003;56232;53.384;-2.732;2022-07-05T14:56:39;1;1;
69123;PMS5003;56232;53.384;-2.732;2022-07-05T14:59:06;1;0;
69123;PMS5003;56232;53.384;-2.732;2022-07-05T15:01:30;1;1;
69123;PMS5003;56232;53.384;-2.732;2022-07-05T15:03:55;1;1;
69123;PMS5003;56232;53.384;-2.732;2022-07-05T15:06:21;1;1;
69123;PMS5003;56232;53.384;-2.732;2022-07-05T15:08:46;2;1;
69123;PMS5003;56232;53.384;-2.732;2022-07-05T15:11:12;1;1;
69123;PMS5003;56232;53.384;-2.732;2022-07-05T15:13:37;1;1;
69123;PMS5003;56232;53.384;-2.732;2022-07-05T15:16:03;2;2;
69123;PMS5003;56232;53.384;-2.732;2022-07-05T15:18:29;1;1;
69123;PMS5003;56232;53.384;-2.732;2022-07-05T15:20:54;2;2;
69123;PMS5003;56232;53.384;-2.732;2022-07-05T15:23:20;1;1;
69123;PMS5003;56232;53.384;-2.732;2022-07-05T15:25:46;1;1;
69123;PMS5003;56232;53.384;-2.732;2022-07-05T15:28:11;1;1;
69123;PMS5003;56232;53.384;-2.732;2022-07-05T15:30:37;1;1;
69123;PMS5003;56232;53.384;-2.732;2022-07-05T15:33:02;1;1;
69123;PMS5003;56232;53.384;-2.732;2022-07-05T15:35:27;2;1;
69123;PMS5003;56232;53.384;-2.732;2022-07-05T15:37:53;3;3;
69123;PMS5003;56232;53.384;-2.732;2022-07-05T15:40:18;2;2;
69123;PMS5003;56232;53.384;-2.732;2022-07-05T15:42:44;3;2;
69123;PMS5003;56232;53.384;-2.732;2022-07-05T15:45:10;2;2;
69123;PMS5003;56232;53.384;-2.732;2022-07-05T15:47:35;1;1;
69123;PMS5003;56232;53.384;-2.732;2022-07-05T15:50:01;2;1;
69123;PMS5003;56232;53.384;-2.732;2022-07-05T15:52:26;2;2;
69123;PMS5003;56232;53.384;-2.732;2022-07-05T15:54:52;1;1;
69123;PMS5003;56232;53.384;-2.732;2022-07-05T15:57:17;1;1;
69123;PMS5003;56232;53.384;-2.732;2022-07-05T15:59:43;0;0;
69123;PMS5003;56232;53.384;-2.732;2022-07-05T16:02:08;2;2;
69123;PMS5003;56232;53.384;-2.732;2022-07-05T16:04:34;2;2;
69123;PMS5003;56232;53.384;-2.732;2022-07-05T16:07:00;3;3;
69123;PMS5003;56232;53.384;-2.732;2022-07-05T16:09:25;2;2;
69123;PMS5003;56232;53.384;-2.732;2022-07-05T16:11:51;0;0;
69123;PMS5003;56232;53.384;-2.732;2022-07-05T16:14:16;1;0;
69123;PMS5003;56232;53.384;-2.732;2022-07-05T16:16:42;2;1;
69123;PMS5003;56232;53.384;-2.732;2022-07-05T16:19:07;4;3;
69123;PMS5003;56232;53.384;-2.732;2022-07-05T16:21:33;2;2;
69123;PMS5003;56232;53.384;-2.732;2022-07-05T16:23:58;2;2;
69123;PMS5003;56232;53.384;-2.732;2022-07-05T16:26:24;4;4;
69123;PMS5003;56232;53.384;-2.732;2022-07-05T16:28:49;2;2;
69123;PMS5003;56232;53.384;-2.732;2022-07-05T16:31:15;2;2;
69123;PMS5003;56232;53.384;-2.732;2022-07-05T16:33:42;1;1;
69123;PMS5003;56232;53.384;-2.732;2022-07-05T16:36:07;2;2;
69123;PMS5003;56232;53.384;-2.732;2022-07-05T16:38:32;3;2;
69123;PMS5003;56232;53.384;-2.732;2022-07-05T16:40:57;1;1;
69123;PMS5003;56232;53.384;-2.732;2022-07-05T16:43:23;2;2;
69123;PMS5003;56232;53.384;-2.732;2022-07-05T16:45:48;4;3;
69123;PMS5003;56232;53.384;-2.732;2022-07-05T16:48:14;2;2;
69123;PMS5003;56232;53.384;-2.732;2022-07-05T16:50:40;4;2;
69123;PMS5003;56232;53.384;-2.732;2022-07-05T16:53:05;1;1;
69123;PMS5003;56232;53.384;-2.732;2022-07-05T16:55:31;3;2;